CheckWX is a tool to help pilots better visualize weather data.  It is not intended as a substitute for an official pre-flight weather briefing.

00:28:18 UTC

KBMI TAF
Central Illinois Regional at Bloomington-Normal Airport
Bloomington/Normal, Illinois, USA
KBMI 182324Z 1900/1924 15006KT P6SM SKC FM191700 19006KT P6SM SKC FM192100 VRB04KT P6SM SCT100

Oct-19@
00:00 UTC

Oct-19 @ 00:00 UTC

Oct-19@
17:00 UTC

Oct-19 @ 17:00 UTC

KBMI 182324Z 1900/1924 15006KT P6SM SKC
Wind
  • 150° at 6 KTS
Cloud Levels
  • Clear skies

Oct-19@
17:00 UTC

Oct-19 @ 17:00 UTC

Oct-19@
21:00 UTC

Oct-19 @ 21:00 UTC

FM191700 19006KT P6SM SKC

From

From Standard forecast or significant change

Wind
  • 190° at 6 KTS
Cloud Levels
  • Clear skies

Oct-19@
21:00 UTC

Oct-19 @ 21:00 UTC

Oct-20@
00:00 UTC

Oct-20 @ 00:00 UTC

FM192100 VRB04KT P6SM SCT100

From

From Standard forecast or significant change

Wind
  • Variable at 4 KTS
Cloud Levels
  • Scattered at 10,000' AGL